WCOM7: Spring River, Waco, MO

Data processed at Sun Jul 05 23:37:22 2015 Central Daylight Time


All information presented herein is the property of the government of the United States of America and may be revised or deleted at any time without prior notice.
Dissemination of this information without the expressed written consent of the Public Affairs Office, Tulsa District U.S. Army Corps of Engineers is strictly prohibited.
These data are gathered electronically and, as presented, have not undergone any form of quality control. These data are not guaranteed to be valid or correct.
Go to home page.
Go to station list.
Go to station map.

Upstream stations:

Downstream station: Previous Day
Next Day
Current Day

Display graphics.
Display DCP transmissions.


    
    SHEF ID:       WCOM7     Spring River, Waco, MO
    STATION TYPE:  STREAM GAGE
    Regulation Limits:  Stage =   19.00, Flow =   17700
    
                   PRECIP     STAGE  RIV-FLOW  BAT-LOAD
                   INCHES      FEET       CFS     VOLTS
                     GOES      GOES      GOES      GOES
       (Cen)
    07/05 01:00      0.00      3.06       817     12.89
    07/05 02:00      0.00      3.03       799     12.71
    07/05 03:00      0.00      3.00       782     12.83
    07/05 04:00      0.00      2.97       765     12.83
    07/05 05:00      0.00      2.95       754     12.77
    07/05 06:00      0.00      2.92       737     12.77
    07/05 07:00      0.00      2.90       726     12.77
    07/05 08:00      0.00      2.89       721     13.00
    07/05 09:00      0.00      2.87       710     13.53
    07/05 10:00      0.00      2.86       705     13.36
    07/05 11:00      0.00      2.85       699     13.88
    07/05 12:00      0.00      2.84       694     13.77
    07/05 13:00      0.00      2.83       689     13.83
    07/05 14:00      0.00      2.82       683     13.83
    07/05 15:00      0.00      2.81       678     13.77
    07/05 16:00      0.00      2.80       673     13.65
    07/05 17:00      0.00      2.79       668     13.59
    07/05 18:00      0.00      2.79       668     13.53
    07/05 19:00      0.00      2.78       663     13.59
    07/05 20:00      0.00      2.76       652     13.48
    07/05 21:00      0.00      2.76       652     13.12
    07/05 22:00      0.00      2.75       647     12.95
    07/05 23:00      0.00      2.74       642     12.89
    07/06 00:00      ----      ----      ----      ----